Time;durP1;ratioP1;P1;durP2;ratioP2;P2;SDS_P1;SDS_P2;PMS_P1;PMS_P2;Temp;Humidity;BMP_temperature;BMP_pressure;BME280_temperature;BME280_humidity;BME280_pressure;Samples;Min_cycle;Max_cycle;Signal;HPM_P1;HPM_P2
2022/07/15 00:00:40;;;;;;;;;;;;;;;29.32;33.36;96985.50;4234781;28;5574;-70
2022/07/15 00:03:01;;;;;;;;;;;;;;;29.28;33.37;96982.59;4234817;28;5694;-70
2022/07/15 00:05:23;;;;;;;;;;;;;;;29.26;33.41;96993.00;4234785;28;6014;-70
2022/07/15 00:07:45;;;;;;;;;;;;;;;29.23;33.35;96985.47;4234611;28;5589;-70
2022/07/15 00:10:15;;;;;;;;;;;;;;;29.24;33.45;96991.72;4230512;28;5628;-70
2022/07/15 00:12:36;;;;;;;;;;;;;;;29.20;33.38;96996.16;4217811;28;5605;-70
2022/07/15 00:14:59;;;;;;;;;;;;;;;29.20;33.52;96996.16;4217795;28;7672;-70
2022/07/15 00:17:20;;;;;;;;;;;;;;;29.20;33.59;96999.66;4217436;28;5604;-70
2022/07/15 00:19:42;;;;;;;;;;;;;;;29.20;33.48;97001.59;4217560;28;5830;-70
2022/07/15 00:22:03;;;;;;;;;;;;;;;29.17;33.61;97005.75;4217724;28;5611;-70
2022/07/15 00:24:25;;;;;;;;;;;;;;;29.16;33.62;97000.59;4220728;28;5608;-70
2022/07/15 00:26:48;;;;;;;;;;;;;;;29.15;33.59;96993.56;4239103;27;5567;-70
2022/07/15 00:29:10;;;;;;;;;;;;;;;29.15;33.70;96988.09;4254923;27;5575;-70
2022/07/15 00:31:32;;;;;;;;;;;;;;;29.14;33.60;96987.31;4255072;27;5578;-70
2022/07/15 00:33:53;;;;;;;;;;;;;;;29.13;33.75;96987.63;4255158;27;6267;-70
2022/07/15 00:36:15;;;;;;;;;;;;;;;29.14;33.74;96990.03;4254887;27;5574;-70
2022/07/15 00:38:37;;;;;;;;;;;;;;;29.14;33.67;96989.22;4254549;27;5811;-71
2022/07/15 00:40:58;;;;;;;;;;;;;;;29.13;33.76;96990.34;4254699;27;5812;-70
2022/07/15 00:43:21;;;;;;;;;;;;;;;29.13;33.83;96985.69;4254849;27;5571;-71
2022/07/15 00:45:43;;;;;;;;;;;;;;;29.12;33.72;96983.28;4254818;27;5722;-70
2022/07/15 00:48:06;;;;;;;;;;;;;;;29.11;33.85;96982.50;4254686;27;5570;-71
2022/07/15 00:50:31;;;;;;;;;;;;;;;29.09;33.83;96983.88;4254848;27;5559;-71
2022/07/15 00:52:55;;;;;;;;;;;;;;;29.09;33.86;96992.06;4254763;27;5732;-71
2022/07/15 00:55:19;;;;;;;;;;;;;;;29.09;33.79;96973.81;4254533;27;5570;-71
2022/07/15 00:57:44;;;;;;;;;;;;;;;29.07;33.84;96975.22;4254461;27;5583;-70
2022/07/15 01:00:10;;;;;;;;;;;;;;;29.07;33.84;96978.75;4254749;27;5574;-70
2022/07/15 01:02:32;;;;;;;;;;;;;;;29.07;33.71;96980.66;4254589;27;6100;-71
2022/07/15 01:04:55;;;;;;;;;;;;;;;29.05;33.72;96985.63;4254652;27;5583;-70
2022/07/15 01:07:16;;;;;;;;;;;;;;;29.03;33.75;96980.50;4254238;27;5621;-70
2022/07/15 01:09:37;;;;;;;;;;;;;;;29.04;33.65;96989.47;4242438;27;5620;-71
2022/07/15 01:11:59;;;;;;;;;;;;;;;29.02;33.78;96983.53;4220409;28;5691;-71
2022/07/15 01:14:21;;;;;;;;;;;;;;;29.01;33.80;96981.91;4220489;28;5600;-70
2022/07/15 01:16:44;;;;;;;;;;;;;;;29.01;33.71;96982.72;4220195;28;5604;-71
2022/07/15 01:19:06;;;;;;;;;;;;;;;28.98;33.83;96986.84;4220424;28;5600;-71
2022/07/15 01:21:29;;;;;;;;;;;;;;;28.98;33.90;96986.03;4220167;28;5669;-70
2022/07/15 01:23:51;;;;;;;;;;;;;;;28.95;33.75;96995.63;4220147;28;5605;-71
2022/07/15 01:26:13;;;;;;;;;;;;;;;28.93;33.89;96986.97;4220093;28;5113;-70
2022/07/15 01:28:35;;;;;;;;;;;;;;;28.92;33.80;96990.81;4220083;28;5623;-70
2022/07/15 01:30:56;;;;;;;;;;;;;;;28.91;33.83;96989.19;4220100;28;5818;-71
2022/07/15 01:33:18;;;;;;;;;;;;;;;28.91;33.71;96983.75;4220185;28;5703;-71
2022/07/15 01:35:39;;;;;;;;;;;;;;;28.91;33.91;96983.75;4219156;28;5617;-71
2022/07/15 01:38:02;;;;;;;;;;;;;;;28.90;33.88;96994.94;4220096;28;5700;-71
2022/07/15 01:40:24;;;;;;;;;;;;;;;28.89;33.78;96990.63;4220164;28;5616;-71
2022/07/15 01:42:48;;;;;;;;;;;;;;;28.87;33.81;96999.03;4220000;28;5614;-71
2022/07/15 01:45:10;;;;;;;;;;;;;;;28.84;33.89;96994.22;4220077;28;5597;-71
2022/07/15 01:47:32;;;;;;;;;;;;;;;28.84;34.09;96996.94;4219970;28;7158;-71
2022/07/15 01:49:52;;;;;;;;;;;;;;;28.83;34.00;96987.16;4219714;28;5673;-71
2022/07/15 01:52:14;;;;;;;;;;;;;;;28.82;33.81;96991.00;4220099;28;5651;-71
2022/07/15 01:54:37;;;;;;;;;;;;;;;28.79;33.89;96991.59;4219619;28;5608;-71
2022/07/15 01:56:59;;;;;;;;;;;;;;;28.78;34.27;96995.44;4219820;28;5710;-71
2022/07/15 01:59:22;;;;;;;;;;;;;;;28.78;33.96;96984.56;4219788;28;5608;-71
2022/07/15 02:01:45;;;;;;;;;;;;;;;28.78;33.84;96989.19;4219614;28;5660;-71
2022/07/15 02:04:06;;;;;;;;;;;;;;;28.77;34.04;96993.00;4219534;28;5732;-71
2022/07/15 02:06:28;;;;;;;;;;;;;;;28.76;34.20;96985.94;4219290;28;5682;-71
2022/07/15 02:08:50;;;;;;;;;;;;;;;28.77;34.11;96985.69;4219515;28;5601;-71
2022/07/15 02:11:13;;;;;;;;;;;;;;;28.76;33.87;96980.50;4230442;28;5573;-71
2022/07/15 02:13:35;;;;;;;;;;;;;;;28.77;33.98;96980.22;4232781;28;5693;-71
2022/07/15 02:15:57;;;;;;;;;;;;;;;28.76;33.94;96975.88;4219169;28;5665;-71
2022/07/15 02:18:19;;;;;;;;;;;;;;;28.77;33.72;96976.69;4219398;28;5672;-71
2022/07/15 02:20:41;;;;;;;;;;;;;;;28.77;33.79;96976.69;4219413;28;5654;-71
2022/07/15 02:23:05;;;;;;;;;;;;;;;28.76;33.72;96975.06;4219355;28;6669;-71
2022/07/15 02:25:30;;;;;;;;;;;;;;;28.75;33.93;96973.47;4219176;28;5657;-71
2022/07/15 02:27:56;;;;;;;;;;;;;;;28.73;33.72;96976.50;4235801;28;6790;-71
2022/07/15 02:30:17;;;;;;;;;;;;;;;28.71;33.67;96978.72;4236368;28;5605;-71
2022/07/15 02:32:39;;;;;;;;;;;;;;;28.70;33.88;96974.41;4236327;28;6258;-71
2022/07/15 02:35:00;;;;;;;;;;;;;;;28.70;33.69;96969.75;4236153;28;5601;-71
2022/07/15 02:37:22;;;;;;;;;;;;;;;28.70;33.66;96971.69;4236001;28;5794;-71
2022/07/15 02:39:44;;;;;;;;;;;;;;;28.68;33.64;96968.47;4235659;28;5589;-71
2022/07/15 02:42:06;;;;;;;;;;;;;;;28.68;33.54;96973.91;4235987;28;5597;-71
2022/07/15 02:44:29;;;;;;;;;;;;;;;28.64;33.37;96970.16;4235910;28;5585;-71
2022/07/15 02:46:50;;;;;;;;;;;;;;;28.62;33.59;96973.19;4234713;28;5829;-71
2022/07/15 02:49:12;;;;;;;;;;;;;;;28.61;33.64;96963.41;4235811;28;5577;-71
2022/07/15 02:51:33;;;;;;;;;;;;;;;28.61;33.63;96968.88;4235851;28;5587;-71
2022/07/15 02:53:55;;;;;;;;;;;;;;;28.59;33.40;96973.00;4235392;28;5590;-71
2022/07/15 02:56:16;;;;;;;;;;;;;;;28.59;33.72;96973.00;4235896;28;5589;-71
2022/07/15 02:58:38;;;;;;;;;;;;;;;28.58;33.36;96968.69;4235771;28;5589;-71
2022/07/15 03:01:01;;;;;;;;;;;;;;;28.59;33.67;96973.81;4235925;28;5589;-71
2022/07/15 03:03:23;;;;;;;;;;;;;;;28.58;33.56;96974.91;4235476;28;6298;-71
2022/07/15 03:05:44;;;;;;;;;;;;;;;28.55;33.47;96966.56;4235509;28;5740;-71
2022/07/15 03:08:06;;;;;;;;;;;;;;;28.49;33.69;96970.50;4235343;28;5853;-71
2022/07/15 03:10:28;;;;;;;;;;;;;;;28.46;33.56;96976.53;4234858;28;5632;-71
2022/07/15 03:12:50;;;;;;;;;;;;;;;28.43;33.79;96977.97;4235490;28;5647;-71
2022/07/15 03:15:12;;;;;;;;;;;;;;;28.42;33.83;96979.84;4235430;28;5647;-71
2022/07/15 03:17:35;;;;;;;;;;;;;;;28.38;33.83;96987.00;4234956;28;5643;-71
2022/07/15 03:19:57;;;;;;;;;;;;;;;28.39;33.83;96982.38;4235241;28;6335;-71
2022/07/15 03:22:18;;;;;;;;;;;;;;;28.37;34.07;96990.03;4235080;28;5643;-71
2022/07/15 03:24:39;;;;;;;;;;;;;;;28.37;34.02;96993.56;4235044;28;5825;-71
2022/07/15 03:27:01;;;;;;;;;;;;;;;28.37;34.24;96984.59;4235208;28;5742;-71
2022/07/15 03:29:22;;;;;;;;;;;;;;;28.34;34.73;96986.03;4235157;28;5642;-71
2022/07/15 03:31:44;;;;;;;;;;;;;;;28.32;34.73;96988.25;4235042;28;5645;-71
2022/07/15 03:34:06;;;;;;;;;;;;;;;28.34;34.88;96994.19;4234849;28;5636;-71
2022/07/15 03:36:29;;;;;;;;;;;;;;;28.34;34.72;96991.47;4234792;28;5635;-71
2022/07/15 03:38:51;;;;;;;;;;;;;;;28.32;34.89;96996.41;4234875;28;5782;-70
2022/07/15 03:41:13;;;;;;;;;;;;;;;28.32;34.87;96993.69;4235083;28;5647;-70
2022/07/15 03:43:35;;;;;;;;;;;;;;;28.31;35.43;96997.47;4234985;28;5662;-70
2022/07/15 03:45:57;;;;;;;;;;;;;;;28.29;35.52;96993.47;4235060;28;5643;-70
2022/07/15 03:48:18;;;;;;;;;;;;;;;28.28;35.28;96992.66;4234779;28;5639;-70
2022/07/15 03:50:41;;;;;;;;;;;;;;;28.28;35.56;97006.25;4234676;28;5639;-70
2022/07/15 03:53:02;;;;;;;;;;;;;;;28.27;35.69;97001.91;4234961;28;5643;-70
2022/07/15 03:55:24;;;;;;;;;;;;;;;28.26;35.67;97010.34;4234999;28;6326;-70
2022/07/15 03:57:45;;;;;;;;;;;;;;;28.22;35.94;97002.00;4234821;28;5635;-70
2022/07/15 04:00:08;;;;;;;;;;;;;;;28.23;35.92;97006.31;4234949;28;5719;-70
2022/07/15 04:02:29;;;;;;;;;;;;;;;28.23;36.02;97011.75;4235085;28;5643;-70
2022/07/15 04:04:51;;;;;;;;;;;;;;;28.24;36.30;97010.66;4234497;28;5723;-70
2022/07/15 04:07:14;;;;;;;;;;;;;;;28.24;36.33;97012.56;4234415;28;5644;-70
2022/07/15 04:09:36;;;;;;;;;;;;;;;28.22;36.26;97017.50;4233573;28;5561;-70
2022/07/15 04:11:58;;;;;;;;;;;;;;;28.22;36.35;97010.16;4217758;28;5599;-70
2022/07/15 04:14:22;;;;;;;;;;;;;;;28.21;36.58;97011.25;4217947;28;5695;-70
2022/07/15 04:16:43;;;;;;;;;;;;;;;28.19;36.50;97009.94;4217449;28;5843;-71
2022/07/15 04:19:06;;;;;;;;;;;;;;;28.19;36.59;97016.16;4242733;27;5646;-70
2022/07/15 04:21:28;;;;;;;;;;;;;;;28.17;37.01;97021.09;4251987;27;5586;-70
2022/07/15 04:23:51;;;;;;;;;;;;;;;28.17;36.88;97018.38;4251424;27;5575;-70
2022/07/15 04:26:13;;;;;;;;;;;;;;;28.17;36.92;97023.03;4251477;27;5578;-70
2022/07/15 04:28:34;;;;;;;;;;;;;;;28.18;36.90;97021.91;4230983;27;5672;-70
2022/07/15 04:30:56;;;;;;;;;;;;;;;28.17;37.20;97025.75;4223091;27;5593;-70
2022/07/15 04:33:19;;;;;;;;;;;;;;;28.16;37.25;97030.38;4217355;28;5620;-70
2022/07/15 04:35:40;;;;;;;;;;;;;;;28.16;37.29;97029.56;4219309;28;5593;-70
2022/07/15 04:38:02;;;;;;;;;;;;;;;28.13;37.38;97023.63;4224553;27;5616;-70
2022/07/15 04:40:24;;;;;;;;;;;;;;;28.08;37.29;97026.44;4216649;28;5608;-76
2022/07/15 04:42:46;;;;;;;;;;;;;;;28.02;37.57;97029.56;4221889;28;6770;-77
2022/07/15 04:45:09;;;;;;;;;;;;;;;27.93;37.79;97034.88;4219941;28;5664;-78
2022/07/15 04:47:30;;;;;;;;;;;;;;;27.91;37.53;97025.41;4226853;28;5592;-77
2022/07/15 04:52:30;;;;;;;;;;;;;;;27.85;37.65;97030.09;4234395;28;5593;-78
2022/07/15 04:54:52;;;;;;;;;;;;;;;27.83;37.49;97033.13;4234062;28;5594;-79
2022/07/15 04:57:15;;;;;;;;;;;;;;;27.84;37.66;97032.03;4234174;28;5589;-78
2022/07/15 04:59:37;;;;;;;;;;;;;;;27.80;37.57;97036.44;4231326;28;5606;-79
2022/07/15 05:01:58;;;;;;;;;;;;;;;27.75;37.54;97033.03;4217194;28;5747;-77
2022/07/15 05:04:20;;;;;;;;;;;;;;;27.67;37.63;97036.41;4225819;28;5612;-77
2022/07/15 05:06:41;;;;;;;;;;;;;;;27.65;38.01;97044.06;4231877;28;5581;-78
2022/07/15 05:09:21;;;;;;;;;;;;;;;27.66;38.10;97040.25;4230810;28;5598;-79
2022/07/15 05:11:43;;;;;;;;;;;;;;;27.68;37.90;97038.81;4233065;28;5586;-78
2022/07/15 05:14:05;;;;;;;;;;;;;;;27.71;37.61;97038.22;4229938;28;5673;-79
2022/07/15 05:16:27;;;;;;;;;;;;;;;27.74;37.87;97043.06;4232037;28;5578;-79
2022/07/15 05:18:48;;;;;;;;;;;;;;;27.76;37.66;97040.88;4236123;28;5588;-80
2022/07/15 05:21:10;;;;;;;;;;;;;;;27.77;37.72;97039.78;4218860;28;5868;-79
2022/07/15 05:23:33;;;;;;;;;;;;;;;27.80;38.04;97038.34;4222901;28;5614;-78
2022/07/15 05:25:54;;;;;;;;;;;;;;;27.82;37.73;97045.09;4227944;28;5676;-79
2022/07/15 05:28:15;;;;;;;;;;;;;;;27.84;37.93;97040.16;4225555;28;5589;-79
2022/07/15 05:30:38;;;;;;;;;;;;;;;27.85;37.76;97039.06;4225981;28;5104;-79
2022/07/15 05:33:00;;;;;;;;;;;;;;;27.88;37.83;97036.88;4228514;28;5590;-79
2022/07/15 05:35:22;;;;;;;;;;;;;;;27.89;37.92;97038.50;4220552;28;5827;-81
2022/07/15 05:37:43;;;;;;;;;;;;;;;27.96;37.95;97039.69;4232084;28;5802;-74
2022/07/15 05:40:06;;;;;;;;;;;;;;;28.01;37.93;97036.91;4220677;28;5689;-73
2022/07/15 05:42:28;;;;;;;;;;;;;;;28.20;37.95;97038.72;4223477;27;5104;-74
2022/07/15 05:44:50;;;;;;;;;;;;;;;28.39;37.67;97039.47;4230031;27;5579;-74
2022/07/15 05:47:13;;;;;;;;;;;;;;;28.60;37.62;97039.88;4223764;28;5592;-76
2022/07/15 05:49:34;;;;;;;;;;;;;;;28.78;37.64;97041.69;4220131;28;5690;-74
2022/07/15 05:52:02;;;;;;;;;;;;;;;28.98;37.49;97049.44;4223250;28;5616;-76
2022/07/15 05:54:24;;;;;;;;;;;;;;;29.09;37.46;97049.22;4222671;28;5629;-75
2022/07/15 05:56:45;;;;;;;;;;;;;;;29.22;37.45;97054.63;4227845;28;6291;-76
2022/07/15 05:59:06;;;;;;;;;;;;;;;29.32;37.60;97048.13;4225157;28;5597;-75
2022/07/15 06:01:28;;;;;;;;;;;;;;;29.47;37.39;97042.38;4220067;28;5105;-77
2022/07/15 06:03:51;;;;;;;;;;;;;;;29.58;37.32;97048.38;4230084;28;5655;-82
2022/07/15 06:06:13;;;;;;;;;;;;;;;29.70;37.18;97043.19;4231060;28;5635;-73
2022/07/15 06:08:35;;;;;;;;;;;;;;;29.79;37.14;97054.16;4227962;28;5691;-73
2022/07/15 06:11:03;;;;;;;;;;;;;;;29.89;37.18;97056.59;4217724;28;7692;-71
2022/07/15 06:13:24;;;;;;;;;;;;;;;29.95;37.15;97060.81;4223479;28;5616;-83
2022/07/15 06:15:46;;;;;;;;;;;;;;;30.00;36.77;97057.94;4221339;28;6175;-77
2022/07/15 06:18:08;;;;;;;;;;;;;;;30.04;37.04;97052.69;4229526;28;5590;-72
2022/07/15 06:20:31;;;;;;;;;;;;;;;30.09;36.98;97052.56;4218327;28;5720;-81
2022/07/15 06:22:53;;;;;;;;;;;;;;;30.10;36.97;97057.72;4219217;28;5600;-81
2022/07/15 06:25:15;;;;;;;;;;;;;;;30.14;36.88;97061.44;4218934;28;5589;-80
2022/07/15 06:27:36;;;;;;;;;;;;;;;30.23;36.95;97045.09;4219061;28;5608;-78
2022/07/15 06:29:59;;;;;;;;;;;;;;;30.30;36.82;97056.38;4221528;28;5687;-75
2022/07/15 06:32:21;;;;;;;;;;;;;;;30.28;36.83;97057.81;4221143;28;5604;-82
2022/07/15 06:34:42;;;;;;;;;;;;;;;30.21;36.74;97058.25;4236282;28;6100;-78
2022/07/15 06:37:05;;;;;;;;;;;;;;;30.17;36.57;97051.81;4229248;28;5600;-71
2022/07/15 06:39:27;;;;;;;;;;;;;;;30.10;36.68;97052.25;4227983;28;5590;-72
2022/07/15 06:41:49;;;;;;;;;;;;;;;30.17;36.45;97051.03;4218872;28;6341;-73
2022/07/15 06:44:11;;;;;;;;;;;;;;;30.19;36.46;97048.78;4224793;28;5800;-72
2022/07/15 06:46:32;;;;;;;;;;;;;;;30.17;36.49;97054.56;4232061;28;5589;-72
2022/07/15 06:48:54;;;;;;;;;;;;;;;30.22;36.49;97061.78;4232429;28;5593;-72
2022/07/15 06:51:15;;;;;;;;;;;;;;;30.24;36.42;97057.66;4218739;28;5592;-72
2022/07/15 06:53:39;;;;;;;;;;;;;;;30.30;36.14;97058.28;4218439;28;5600;-72
2022/07/15 06:56:00;;;;;;;;;;;;;;;30.36;36.07;97059.78;4219908;28;5691;-72
2022/07/15 06:58:22;;;;;;;;;;;;;;;30.41;35.77;97060.44;4220396;28;5599;-72
2022/07/15 07:00:43;;;;;;;;;;;;;;;30.41;35.64;97062.34;4221676;28;5612;-72
2022/07/15 07:03:05;;;;;;;;;;;;;;;30.35;35.50;97056.25;4218704;28;5604;-72
2022/07/15 07:05:27;;;;;;;;;;;;;;;30.28;35.61;97057.81;4222301;28;5597;-72
2022/07/15 07:07:49;;;;;;;;;;;;;;;30.27;35.56;97067.13;4229861;28;6357;-73
2022/07/15 07:10:12;;;;;;;;;;;;;;;30.27;35.36;97067.13;4227841;28;5668;-72
2022/07/15 07:12:33;;;;;;;;;;;;;;;30.24;35.42;97065.00;4234806;28;5514;-72
2022/07/15 07:14:54;;;;;;;;;;;;;;;30.21;35.12;97065.63;4230665;28;5605;-72
2022/07/15 07:17:16;;;;;;;;;;;;;;;30.22;35.02;97067.22;4234818;28;5568;-73
2022/07/15 07:19:38;;;;;;;;;;;;;;;30.14;35.36;97061.44;4233082;28;6400;-72
2022/07/15 07:22:00;;;;;;;;;;;;;;;30.11;35.09;97062.03;4231922;28;5502;-72
2022/07/15 07:24:22;;;;;;;;;;;;;;;30.05;35.03;97057.81;4234563;28;7632;-72
2022/07/15 07:26:44;;;;;;;;;;;;;;;29.99;35.06;97056.34;4234505;28;5497;-72
2022/07/15 07:29:06;;;;;;;;;;;;;;;29.98;35.07;97054.72;4235016;28;5714;-72
2022/07/15 07:31:28;;;;;;;;;;;;;;;29.93;35.15;97057.59;4217542;28;5675;-72
2022/07/15 07:33:50;;;;;;;;;;;;;;;29.90;35.16;97062.84;4221730;28;5424;-72
2022/07/15 07:36:11;;;;;;;;;;;;;;;29.86;35.31;97051.78;4234632;28;5844;-72
2022/07/15 07:38:34;;;;;;;;;;;;;;;29.80;35.27;97055.75;4234911;28;5585;-71
2022/07/15 07:40:55;;;;;;;;;;;;;;;29.75;35.45;97051.22;4231990;28;5619;-72
2022/07/15 07:43:19;;;;;;;;;;;;;;;29.66;35.64;97046.81;4230493;28;5589;-72
2022/07/15 07:45:41;;;;;;;;;;;;;;;29.60;35.87;97051.59;4233300;28;5494;-72
2022/07/15 07:48:03;;;;;;;;;;;;;;;29.55;36.21;97055.25;4227560;28;5666;-72
2022/07/15 07:50:25;;;;;;;;;;;;;;;29.46;36.03;97054.34;4217661;28;6150;-72
2022/07/15 07:52:47;;;;;;;;;;;;;;;29.36;36.39;97053.78;4224733;28;5767;-81
2022/07/15 07:55:10;;;;;;;;;;;;;;;29.30;36.51;97050.38;4217509;28;5097;-81
2022/07/15 07:57:32;;;;;;;;;;;;;;;29.29;36.63;97054.19;4219984;28;5680;-82
2022/07/15 07:59:55;;;;;;;;;;;;;;;29.28;36.65;97047.16;4230315;28;5697;-82
2022/07/15 08:02:17;;;;;;;;;;;;;;;29.28;36.54;97049.88;4237311;28;5680;-81
2022/07/15 08:04:40;;;;;;;;;;;;;;;29.25;36.71;97053.22;4232253;28;5680;-81
2022/07/15 08:07:02;;;;;;;;;;;;;;;29.21;36.84;97057.66;4220066;28;5604;-81
2022/07/15 08:09:42;;;;;;;;;;;;;;;29.15;37.15;97058.88;4219563;27;5605;-81
2022/07/15 08:12:04;;;;;;;;;;;;;;;29.15;37.15;97054.25;4232407;28;5644;-81
2022/07/15 08:14:25;;;;;;;;;;;;;;;29.15;37.09;97059.69;4235538;28;5498;-81
2022/07/15 08:16:48;;;;;;;;;;;;;;;29.10;37.35;97056.25;4235788;28;5494;-81
2022/07/15 08:19:13;;;;;;;;;;;;;;;29.04;37.33;97061.03;4236140;28;5510;-81
2022/07/15 08:21:35;;;;;;;;;;;;;;;28.98;37.24;97060.31;4236641;28;5502;-81
2022/07/15 08:23:56;;;;;;;;;;;;;;;28.94;37.30;97056.59;4236151;28;5116;-81
2022/07/15 08:26:23;;;;;;;;;;;;;;;28.93;37.20;97063.16;4236847;28;5505;-83
2022/07/15 08:28:44;;;;;;;;;;;;;;;28.96;37.32;97072.63;4220143;28;5584;-81
2022/07/15 08:31:26;;;;;;;;;;;;;;;28.98;37.27;97064.94;4219557;28;5585;-81
2022/07/15 08:33:49;;;;;;;;;;;;;;;29.01;37.42;97058.13;4217985;28;5682;-81
2022/07/15 08:36:11;;;;;;;;;;;;;;;29.05;37.20;97070.81;4217888;28;5624;-81
2022/07/15 08:38:33;;;;;;;;;;;;;;;29.06;37.34;97053.34;4217682;28;7095;-80
2022/07/15 08:40:57;;;;;;;;;;;;;;;29.08;37.37;97055.75;4217884;28;5608;-80
2022/07/15 08:43:18;;;;;;;;;;;;;;;29.10;37.33;97062.50;4224974;28;5585;-80
2022/07/15 08:45:42;;;;;;;;;;;;;;;29.08;37.44;97053.84;4236631;28;5645;-80
2022/07/15 08:48:05;;;;;;;;;;;;;;;29.07;37.32;97059.59;4237724;28;5598;-80
2022/07/15 08:50:29;;;;;;;;;;;;;;;29.08;37.32;97058.50;4237821;28;5718;-80
2022/07/15 08:52:51;;;;;;;;;;;;;;;29.08;37.36;97047.59;4227811;28;5582;-80
2022/07/15 08:55:16;;;;;;;;;;;;;;;29.07;37.26;97054.97;4232993;28;5590;-81
2022/07/15 08:57:38;;;;;;;;;;;;;;;29.03;37.19;97056.69;4217766;28;5592;-81
2022/07/15 09:00:07;;;;;;;;;;;;;;;28.98;37.22;97049.44;4221470;28;5834;-80
2022/07/15 09:02:29;;;;;;;;;;;;;;;29.01;37.35;97058.13;4232966;28;5688;-80
2022/07/15 09:05:21;;;;;;;;;;;;;;;29.06;36.97;97058.00;4222614;28;7683;-80
2022/07/15 09:07:54;;;;;;;;;;;;;;;29.09;36.94;97052.72;4217830;28;5707;-80
2022/07/15 09:10:15;;;;;;;;;;;;;;;29.15;36.83;97061.59;4217178;28;5836;-80
2022/07/15 09:12:41;;;;;;;;;;;;;;;29.20;36.67;97061.47;4217854;28;6447;-82
2022/07/15 09:15:03;;;;;;;;;;;;;;;29.18;36.70;97056.34;4217528;28;5699;-79
2022/07/15 09:17:25;;;;;;;;;;;;;;;29.14;36.61;97060.00;4217079;28;5712;-79
2022/07/15 09:20:03;;;;;;;;;;;;;;;29.15;36.48;97059.69;4217475;28;5829;-80
2022/07/15 09:22:25;;;;;;;;;;;;;;;29.20;36.35;97062.28;4217618;28;5699;-79
2022/07/15 09:24:51;;;;;;;;;;;;;;;29.24;36.23;97057.84;4217510;28;5839;-80
2022/07/15 09:27:28;;;;;;;;;;;;;;;29.26;36.07;97050.19;4217640;28;5706;-79
2022/07/15 09:36:01;;;;;;;;;;;;;;;29.26;35.79;97050.19;4217154;28;5712;-80
2022/07/15 09:38:05;;;;;;;;;;;;;;;29.28;35.86;97038.97;4217167;28;5767;-80
2022/07/15 09:40:28;;;;;;;;;;;;;;;29.35;35.97;97053.00;4216872;28;5699;-80
2022/07/15 09:43:05;;;;;;;;;;;;;;;29.38;35.92;97052.38;4217397;28;5703;-80
2022/07/15 09:45:26;;;;;;;;;;;;;;;29.39;35.81;97047.72;4216901;28;5847;-80
2022/07/15 09:48:05;;;;;;;;;;;;;;;29.41;35.93;97051.75;4216838;28;5715;-81
2022/07/15 09:50:34;;;;;;;;;;;;;;;29.46;35.69;97054.34;4217189;28;5699;-81
2022/07/15 09:52:57;;;;;;;;;;;;;;;29.48;35.99;97046.72;4217465;28;5695;-81
2022/07/15 09:55:19;;;;;;;;;;;;;;;29.50;35.68;97033.59;4228304;28;5689;-81
2022/07/15 09:57:42;;;;;;;;;;;;;;;29.50;35.90;97039.03;4218644;28;5827;-81
2022/07/15 10:00:05;;;;;;;;;;;;;;;29.51;36.09;97037.91;4230241;28;5692;-82
2022/07/15 10:02:27;;;;;;;;;;;;;;;29.55;35.93;97035.38;4233974;28;5688;-81
2022/07/15 10:04:50;;;;;;;;;;;;;;;29.58;35.99;97033.97;4233742;28;5700;-82
2022/07/15 10:07:15;;;;;;;;;;;;;;;29.59;36.24;97021.94;4233723;28;6125;-81
2022/07/15 10:09:55;;;;;;;;;;;;;;;29.62;36.11;97029.50;4219018;28;5755;-81
2022/07/15 10:12:32;;;;;;;;;;;;;;;29.65;36.04;97024.22;4226476;28;5689;-82
2022/07/15 10:15:09;;;;;;;;;;;;;;;29.68;36.07;97023.63;4224470;28;5835;-82
2022/07/15 10:17:56;;;;;;;;;;;;;;;29.69;35.95;97018.97;4216489;28;5719;-81
2022/07/15 10:20:47;;;;;;;;;;;;;;;29.70;35.96;97020.59;4218672;28;5759;-81
2022/07/15 10:23:25;;;;;;;;;;;;;;;29.75;35.94;97023.97;4217231;28;5704;-81
2022/07/15 10:25:59;;;;;;;;;;;;;;;29.75;36.10;97015.00;4216378;28;5838;-81
2022/07/15 10:28:32;;;;;;;;;;;;;;;29.78;35.84;97017.09;4216297;28;5706;-72
2022/07/15 10:31:18;;;;;;;;;;;;;;;29.81;35.98;97009.13;4216501;28;5703;-72
2022/07/15 10:33:41;;;;;;;;;;;;;;;29.86;35.82;97013.63;4215986;28;5695;-72
2022/07/15 10:36:05;;;;;;;;;;;;;;;29.88;35.72;97011.38;4226897;28;5768;-72
2022/07/15 10:38:31;;;;;;;;;;;;;;;29.88;35.79;97005.94;4231574;28;5669;-72
2022/07/15 10:41:07;;;;;;;;;;;;;;;29.89;35.65;97007.53;4227507;28;5723;-72
2022/07/15 10:43:47;;;;;;;;;;;;;;;29.93;35.64;97000.38;4216158;28;5719;-72
2022/07/15 10:46:27;;;;;;;;;;;;;;;29.94;35.53;96993.78;4223421;28;5676;-72
2022/07/15 10:48:50;;;;;;;;;;;;;;;30.00;35.49;96991.72;4232652;28;5727;-72
2022/07/15 10:51:13;;;;;;;;;;;;;;;30.04;35.40;96985.34;4233149;28;5813;-72
2022/07/15 10:53:44;;;;;;;;;;;;;;;30.06;35.47;96987.78;4232863;28;5696;-72
2022/07/15 10:56:28;;;;;;;;;;;;;;;30.10;35.41;96981.38;4231102;28;5695;-72
2022/07/15 10:59:08;;;;;;;;;;;;;;;30.12;35.38;96987.31;4227311;28;5688;-73
2022/07/15 11:01:31;;;;;;;;;;;;;;;30.17;35.45;96986.38;4232829;28;6425;-73
2022/07/15 11:04:14;;;;;;;;;;;;;;;30.20;35.45;96984.94;4233007;28;5688;-73
2022/07/15 11:07:16;;;;;;;;;;;;;;;30.19;35.47;96986.06;4231574;28;5704;-72
2022/07/15 11:09:48;;;;;;;;;;;;;;;30.19;35.47;96972.44;4232575;28;5794;-73
2022/07/15 11:12:11;;;;;;;;;;;;;;;30.18;35.61;96981.75;4215903;28;5687;-72
2022/07/15 11:14:50;;;;;;;;;;;;;;;30.19;35.71;96978.69;4229313;28;5729;-72
2022/07/15 11:17:16;;;;;;;;;;;;;;;30.17;35.87;96977.41;4231757;28;5597;-72
2022/07/15 11:19:38;;;;;;;;;;;;;;;30.16;35.88;96978.53;4232759;28;5712;-72
2022/07/15 11:22:01;;;;;;;;;;;;;;;30.11;35.99;96977.53;4221199;28;5734;-72
2022/07/15 11:24:25;;;;;;;;;;;;;;;30.12;35.95;96973.69;4220726;28;5685;-71
2022/07/15 11:26:48;;;;;;;;;;;;;;;30.18;36.05;96979.00;4232482;28;5594;-72
2022/07/15 11:29:09;;;;;;;;;;;;;;;30.19;35.88;96969.72;4224395;28;5084;-72
2022/07/15 11:31:40;;;;;;;;;;;;;;;30.22;35.78;96966.34;4221174;28;5601;-72
2022/07/15 11:34:04;;;;;;;;;;;;;;;30.25;35.70;96966.53;4232359;28;5812;-72
2022/07/15 11:36:26;;;;;;;;;;;;;;;30.27;35.77;96958.03;4232205;28;5681;-72
2022/07/15 11:38:47;;;;;;;;;;;;;;;30.28;35.70;96970.56;4232555;28;5849;-71
2022/07/15 11:46:44;;;;;;;;;;;;;;;30.37;35.46;96952.28;4232322;28;5680;-73
2022/07/15 11:49:07;;;;;;;;;;;;;;;30.40;35.56;96957.13;4231876;28;5809;-73
2022/07/15 11:51:31;;;;;;;;;;;;;;;30.43;35.56;96965.44;4224987;28;5778;-72
2022/07/15 11:53:52;;;;;;;;;;;;;;;30.43;35.46;96968.19;4226161;28;5854;-72
2022/07/15 11:56:15;;;;;;;;;;;;;;;30.40;35.53;96957.91;4217371;28;5708;-72
2022/07/15 11:58:39;;;;;;;;;;;;;;;30.45;35.51;96959.69;4214481;28;5739;-72
2022/07/15 12:01:03;;;;;;;;;;;;;;;30.48;35.47;96952.81;4214682;28;5708;-72
2022/07/15 12:03:25;;;;;;;;;;;;;;;30.50;35.45;96956.81;4231976;28;5669;-73
2022/07/15 12:06:01;;;;;;;;;;;;;;;30.52;35.46;96957.28;4221173;28;5600;-72
2022/07/15 12:08:34;;;;;;;;;;;;;;;30.52;35.38;96946.38;4224997;28;5648;-72
2022/07/15 12:10:56;;;;;;;;;;;;;;;30.56;35.37;96960.97;4226984;27;5704;-72
2022/07/15 12:13:18;;;;;;;;;;;;;;;30.58;35.23;96955.22;4218580;28;5699;-72
2022/07/15 12:15:41;;;;;;;;;;;;;;;30.60;35.08;96948.34;4227337;28;5673;-72
2022/07/15 12:18:03;;;;;;;;;;;;;;;30.63;35.14;96949.63;4183398;28;6519;-72
2022/07/15 12:20:26;;;;;;;;;;;;;;;30.63;34.83;96955.91;4197970;28;5788;-72
2022/07/15 12:23:06;;;;;;;;;;;;;;;30.66;34.82;96959.91;4196232;28;5908;-72
2022/07/15 12:25:27;;;;;;;;;;;;;;;30.68;34.72;96947.56;4181339;28;5112;-72
2022/07/15 12:27:49;;;;;;;;;;;;;;;30.73;34.75;96956.72;4186515;28;5788;-72
2022/07/15 12:30:11;;;;;;;;;;;;;;;30.76;34.51;96953.34;4197106;28;5781;-72
2022/07/15 12:32:33;;;;;;;;;;;;;;;30.77;34.42;96946.78;4190738;28;5765;-72
2022/07/15 12:34:56;;;;;;;;;;;;;;;30.79;34.21;96941.78;4197524;28;7115;-72
2022/07/15 12:37:21;;;;;;;;;;;;;;;30.79;34.14;96948.03;4197716;28;5764;-72
2022/07/15 12:39:56;;;;;;;;;;;;;;;30.78;34.04;96940.97;4195572;28;5782;-72
2022/07/15 12:42:18;;;;;;;;;;;;;;;30.82;33.93;96935.72;4181043;28;5832;-72
2022/07/15 12:44:40;;;;;;;;;;;;;;;30.83;33.51;96927.19;4188270;28;5856;-72
2022/07/15 12:47:04;;;;;;;;;;;;;;;30.85;33.50;96935.88;4196871;28;5833;-72
2022/07/15 12:49:47;;;;;;;;;;;;;;;30.86;33.28;96929.28;4196177;28;5818;-72
2022/07/15 12:52:18;;;;;;;;;;;;;;;30.86;32.94;96923.81;4192340;28;5773;-73
2022/07/15 12:54:40;;;;;;;;;;;;;;;30.88;33.03;96934.41;4195273;28;5757;-73